Tununak, Alaska
Current Conditions -  °F | °C
As of 12:56 AM on Monday 26 Jan 2015 (Local Time) from PAOO Reporting Station
Clear Clear  
Wind Chill: -30°   Ceiling: Unl
Heat Index: -8°   Visibility: 10mi
Dew Point: -17°   Wind: 16mph
Humidity: 65%   Direction: 10°N
Pressure: 30.05"   Gusts: NA
Location:  60.58°N, 165.25°W
Report Text: PAOO 260956Z AUTO 01014KT 10SM CLR M22/M27 A3005 RMK AO2 TSNO T12221272 PK WND 36033/0944 SLP178 $
Loading
Personal Weather Stations






























Interactive Weather Map New forecast layout! Learn more

10-Day Weather Forecast

Advertisements
Track Severe Weather on mobile